Time;durP1;ratioP1;P1;durP2;ratioP2;P2;SDS_P1;SDS_P2;PMS_P1;PMS_P2;Temp;Humidity;BMP_temperature;BMP_pressure;BME280_temperature;BME280_humidity;BME280_pressure;Samples;Min_cycle;Max_cycle;Signal;HPM_P1;HPM_P2
2022/12/10 00:00:31;;;;;;;41.33;22.63;;;-10.00;99.90;;;;;;5097903;28;21215;-74
2022/12/10 00:02:57;;;;;;;34.83;18.70;;;-8.50;99.90;;;;;;5102590;28;20494;-75
2022/12/10 00:05:22;;;;;;;42.23;21.27;;;-9.70;99.90;;;;;;5101883;28;20240;-75
2022/12/10 00:07:49;;;;;;;38.97;20.77;;;-9.70;99.90;;;;;;5097117;28;20660;-74
2022/12/10 00:10:14;;;;;;;53.90;30.03;;;-9.60;99.90;;;;;;5097039;28;20566;-74
2022/12/10 00:12:40;;;;;;;37.93;20.80;;;-8.00;99.90;;;;;;5101775;28;20427;-77
2022/12/10 00:15:06;;;;;;;44.40;23.47;;;-9.90;99.90;;;;;;5102162;28;20183;-73
2022/12/10 00:17:32;;;;;;;46.03;23.37;;;-9.70;99.90;;;;;;5096993;28;20183;-76
2022/12/10 00:19:58;;;;;;;34.13;21.20;;;-9.60;99.90;;;;;;5102869;28;20428;-76
2022/12/10 00:22:24;;;;;;;36.33;20.37;;;-9.40;99.90;;;;;;5103122;28;20439;-77
2022/12/10 00:24:50;;;;;;;37.43;20.43;;;-8.80;99.90;;;;;;5103373;28;20206;-74
2022/12/10 00:27:15;;;;;;;37.57;21.27;;;-9.00;99.90;;;;;;5103349;28;20724;-75
2022/12/10 00:29:41;;;;;;;44.00;22.00;;;-8.90;99.90;;;;;;5097021;28;20237;-73
2022/12/10 00:32:07;;;;;;;34.07;20.20;;;-8.60;99.90;;;;;;5102470;28;20823;-76
2022/12/10 00:34:33;;;;;;;39.33;19.40;;;-8.60;99.90;;;;;;5096868;28;20440;-76
2022/12/10 00:36:59;;;;;;;37.87;21.37;;;-8.60;99.90;;;;;;5103621;27;20491;-74
2022/12/10 00:39:25;;;;;;;35.07;20.07;;;-8.50;99.90;;;;;;5103078;28;20186;-75
2022/12/10 00:55:34;;;;;;;34.97;21.17;;;-7.50;99.90;;;;;;5054572;28;20558;-76
2022/12/10 00:58:00;;;;;;;33.83;19.23;;;-9.30;99.90;;;;;;5053990;28;20423;-76
2022/12/10 01:00:25;;;;;;;34.63;17.83;;;-9.10;99.90;;;;;;5058990;28;20236;-76
2022/12/10 01:02:52;;;;;;;32.00;18.00;;;-9.40;99.90;;;;;;5056687;28;20230;-75
2022/12/10 01:05:18;;;;;;;29.43;17.60;;;-8.80;99.90;;;;;;5062317;28;20264;-75
2022/12/10 01:07:44;;;;;;;34.33;17.97;;;-10.10;99.90;;;;;;5058836;28;20421;-75
2022/12/10 01:10:10;;;;;;;31.47;16.77;;;-10.10;99.90;;;;;;5054464;28;20243;-76
2022/12/10 01:12:36;;;;;;;31.50;16.87;;;-10.20;99.90;;;;;;5052071;28;20425;-76
2022/12/10 01:15:02;;;;;;;32.70;17.87;;;-10.10;99.90;;;;;;5058792;28;20222;-76
2022/12/10 01:27:35;;;;;;;41.60;22.70;;;-10.20;99.90;;;;;;5076225;28;20553;-75
2022/12/10 01:30:01;;;;;;;34.30;17.97;;;-9.30;99.90;;;;;;5076728;28;20429;-77
2022/12/10 01:32:26;;;;;;;31.40;18.17;;;-9.30;99.90;;;;;;5072199;28;20508;-74
2022/12/10 01:34:53;;;;;;;36.93;20.43;;;-9.50;99.90;;;;;;5077787;28;20177;-75
2022/12/10 01:37:19;;;;;;;36.37;19.87;;;-9.20;99.90;;;;;;5077012;28;20180;-74
2022/12/10 01:39:45;;;;;;;37.80;19.50;;;-9.50;99.90;;;;;;5075163;28;20421;-75
2022/12/10 01:42:13;;;;;;;37.63;20.67;;;-10.00;99.90;;;;;;5070933;28;20508;-75
2022/12/10 01:44:42;;;;;;;41.10;22.67;;;-9.90;99.90;;;;;;5072193;28;20712;-75
2022/12/10 01:47:08;;;;;;;33.93;19.63;;;-10.10;99.90;;;;;;5075803;28;20456;-75
2022/12/10 02:07:13;;;;;;;40.43;25.13;;;-10.50;99.90;;;;;;5136212;27;20578;-74
2022/12/10 02:10:01;;;;;;;37.83;19.07;;;-9.20;99.90;;;;;;5048654;28;20495;-75
2022/12/10 02:12:48;;;;;;;41.23;22.40;;;-9.50;99.90;;;;;;5128588;28;20866;-77
2022/12/10 04:06:53;;;;;;;82.27;41.63;;;-9.60;99.90;;;;;;5079138;27;20561;-74
2022/12/10 04:09:20;;;;;;;73.23;34.37;;;-9.30;99.90;;;;;;5077047;28;20411;-74
2022/12/10 04:11:46;;;;;;;65.20;31.83;;;-9.50;99.90;;;;;;5071210;28;20267;-75
2022/12/10 04:16:58;;;;;;;72.00;32.33;;;-10.30;99.90;;;;;;5072357;28;20664;-77
2022/12/10 04:19:24;;;;;;;71.13;34.00;;;-10.10;99.90;;;;;;5078326;28;20421;-78
